createdAt,value
2019-05-26T00:01:48.396Z,1010.8
2019-05-26T00:12:06.161Z,1010.6
2019-05-26T00:22:22.162Z,1010.6
2019-05-26T00:32:40.174Z,1010.6
2019-05-26T00:43:27.843Z,1010.4
2019-05-26T00:54:15.927Z,1010.4
2019-05-26T01:05:04.170Z,1010.3
2019-05-26T01:15:50.747Z,1010.3
2019-05-26T01:26:41.734Z,1010.2
2019-05-26T01:37:26.891Z,1010.1
2019-05-26T01:47:40.273Z,1010.0
2019-05-26T01:57:57.024Z,1010.0
2019-05-26T02:08:14.525Z,1009.9
2019-05-26T02:19:07.097Z,1009.9
2019-05-26T02:29:52.616Z,1009.8
2019-05-26T02:40:43.337Z,1009.6
2019-05-26T02:50:57.715Z,1009.6
2019-05-26T03:02:00.831Z,1009.5
2019-05-26T03:12:01.685Z,1009.5
2019-05-26T03:22:14.868Z,1009.5
2019-05-26T03:33:05.226Z,1009.4
2019-05-26T03:43:17.049Z,1009.5
2019-05-26T03:53:30.373Z,1009.4
2019-05-26T04:03:43.708Z,1009.3
2019-05-26T04:13:59.380Z,1009.3
2019-05-26T04:24:49.359Z,1009.2
2019-05-26T04:35:06.334Z,1009.3
2019-05-26T04:45:43.510Z,1009.3
2019-05-26T04:56:02.545Z,1009.2
2019-05-26T05:06:53.344Z,1009.2
2019-05-26T05:17:12.125Z,1009.2
2019-05-26T05:27:26.183Z,1009.0
2019-05-26T05:37:54.739Z,1009.0
2019-05-26T05:48:46.166Z,1009.0
2019-05-26T05:59:31.188Z,1009.0
2019-05-26T06:09:45.596Z,1008.8
2019-05-26T06:19:59.954Z,1008.7
2019-05-26T06:30:55.161Z,1008.8
2019-05-26T06:41:46.693Z,1008.8
2019-05-26T06:52:31.872Z,1008.7
2019-05-26T07:03:19.335Z,1008.8
2019-05-26T07:13:33.166Z,1008.8
2019-05-26T07:24:20.404Z,1008.8
2019-05-26T07:34:34.157Z,1008.7
2019-05-26T07:44:53.509Z,1008.5
2019-05-26T07:55:41.244Z,1008.5
2019-05-26T08:06:02.026Z,1008.5
2019-05-26T08:16:17.530Z,1008.4
2019-05-26T08:26:36.523Z,1008.3
2019-05-26T08:36:53.315Z,1008.3
2019-05-26T08:47:09.405Z,1008.2
2019-05-26T08:57:24.774Z,1008.1
2019-05-26T09:07:37.757Z,1008.0
2019-05-26T09:18:36.542Z,1008.0
2019-05-26T09:35:27.993Z,1008.2
2019-05-26T09:45:45.565Z,1007.9
2019-05-26T09:56:13.476Z,1007.7
2019-05-26T10:06:29.130Z,1007.5
2019-05-26T10:16:45.960Z,1007.6
2019-05-26T10:27:02.472Z,1007.6
2019-05-26T10:37:33.271Z,1007.7
2019-05-26T10:48:20.012Z,1007.5
2019-05-26T10:59:10.029Z,1007.2
2019-05-26T11:09:23.596Z,1007.2
2019-05-26T11:19:37.449Z,1007.1
2019-05-26T11:29:56.324Z,1007.2
2019-05-26T11:40:11.883Z,1007.1
2019-05-26T11:50:25.482Z,1006.8
2019-05-26T12:00:39.235Z,1006.7
2019-05-26T12:10:57.796Z,1006.7
2019-05-26T12:21:42.634Z,1006.6
2019-05-26T12:32:12.502Z,1006.4
2019-05-26T12:42:26.661Z,1006.1
2019-05-26T12:53:35.915Z,1006.2
2019-05-26T13:03:53.954Z,1006.1
2019-05-26T13:14:10.510Z,1006.0
2019-05-26T13:24:37.578Z,1006.0
2019-05-26T13:35:32.843Z,1006.0
2019-05-26T13:46:54.250Z,1006.0
2019-05-26T13:57:10.140Z,1005.9
2019-05-26T14:07:29.132Z,1006.0
2019-05-26T14:18:18.073Z,1005.8
2019-05-26T14:28:33.746Z,1005.7
2019-05-26T14:39:23.357Z,1005.8
2019-05-26T14:50:29.255Z,1005.6
2019-05-26T15:00:47.969Z,1005.5
2019-05-26T15:13:39.703Z,1005.3
2019-05-26T15:23:55.629Z,1005.2
2019-05-26T15:34:43.072Z,1005.2
2019-05-26T15:44:59.146Z,1005.0
2019-05-26T15:55:15.089Z,1005.0
2019-05-26T16:06:01.781Z,1004.7
2019-05-26T16:16:19.689Z,1004.7
2019-05-26T16:26:38.290Z,1004.7
2019-05-26T16:36:52.677Z,1004.6
2019-05-26T16:47:09.659Z,1004.4
2019-05-26T16:57:28.660Z,1004.4
2019-05-26T17:07:47.047Z,1004.4
2019-05-26T17:34:16.176Z,1004.3
2019-05-26T17:45:07.822Z,1004.0
2019-05-26T17:55:24.814Z,1004.0
2019-05-26T18:05:40.708Z,1004.1
2019-05-26T18:16:31.845Z,1003.9
2019-05-26T18:26:49.897Z,1003.9
2019-05-26T18:37:40.594Z,1003.8
2019-05-26T18:48:31.380Z,1003.7
2019-05-26T18:58:46.928Z,1003.6
2019-05-26T19:09:34.243Z,1003.7
2019-05-26T19:19:50.600Z,1003.5
2019-05-26T19:30:09.590Z,1003.6
2019-05-26T19:40:55.257Z,1003.6
2019-05-26T19:51:46.149Z,1003.6
2019-05-26T20:02:33.613Z,1003.5
2019-05-26T20:12:48.774Z,1003.5
2019-05-26T20:23:36.401Z,1003.5
2019-05-26T20:33:51.931Z,1003.6
2019-05-26T20:44:06.765Z,1003.5
2019-05-26T20:54:22.567Z,1003.6
2019-05-26T21:05:10.246Z,1003.7
2019-05-26T21:15:24.710Z,1003.6
2019-05-26T21:26:12.340Z,1003.5
2019-05-26T21:37:00.275Z,1003.6
2019-05-26T21:47:50.671Z,1003.5
2019-05-26T21:58:07.924Z,1003.5
2019-05-26T22:08:24.175Z,1003.5
2019-05-26T22:18:42.316Z,1003.5
2019-05-26T22:29:29.215Z,1003.5
2019-05-26T22:39:47.017Z,1003.4
2019-05-26T22:50:39.384Z,1003.6
2019-05-26T23:01:25.838Z,1003.7
2019-05-26T23:11:44.501Z,1003.7
2019-05-26T23:22:36.255Z,1003.6
2019-05-26T23:33:27.159Z,1003.5
2019-05-26T23:43:43.206Z,1003.6
2019-05-26T23:53:56.580Z,1003.4
